sensor_id;sensor_type;location;lat;lon;timestamp;P1;durP1;ratioP1;P2;durP2;ratioP2
75843;SDS011;64492;51.270;3.912;2022-11-03T00:00:33;3.50;;;1.30;;
75843;SDS011;64492;51.270;3.912;2022-11-03T00:02:59;3.55;;;1.40;;
75843;SDS011;64492;51.270;3.912;2022-11-03T00:05:26;4.25;;;1.55;;
75843;SDS011;64492;51.270;3.912;2022-11-03T00:08:10;4.75;;;1.75;;
75843;SDS011;64492;51.270;3.912;2022-11-03T00:10:37;3.95;;;1.25;;
75843;SDS011;64492;51.270;3.912;2022-11-03T00:13:03;3.58;;;1.35;;
75843;SDS011;64492;51.270;3.912;2022-11-03T00:15:31;3.92;;;1.40;;
75843;SDS011;64492;51.270;3.912;2022-11-03T00:17:57;5.60;;;1.33;;
75843;SDS011;64492;51.270;3.912;2022-11-03T00:20:24;4.00;;;1.38;;
75843;SDS011;64492;51.270;3.912;2022-11-03T00:22:50;5.15;;;1.70;;
75843;SDS011;64492;51.270;3.912;2022-11-03T00:25:17;5.30;;;1.52;;
75843;SDS011;64492;51.270;3.912;2022-11-03T00:27:43;2.90;;;1.23;;
75843;SDS011;64492;51.270;3.912;2022-11-03T00:30:10;2.83;;;1.30;;
75843;SDS011;64492;51.270;3.912;2022-11-03T00:32:38;3.55;;;1.35;;
75843;SDS011;64492;51.270;3.912;2022-11-03T00:35:05;2.72;;;1.10;;
75843;SDS011;64492;51.270;3.912;2022-11-03T00:37:32;2.90;;;1.23;;
75843;SDS011;64492;51.270;3.912;2022-11-03T00:39:59;3.92;;;1.17;;
75843;SDS011;64492;51.270;3.912;2022-11-03T00:42:25;4.53;;;1.60;;
75843;SDS011;64492;51.270;3.912;2022-11-03T00:44:52;3.83;;;1.55;;
75843;SDS011;64492;51.270;3.912;2022-11-03T00:47:18;3.63;;;1.83;;
75843;SDS011;64492;51.270;3.912;2022-11-03T00:49:46;2.83;;;1.30;;
75843;SDS011;64492;51.270;3.912;2022-11-03T00:52:12;4.68;;;1.55;;
75843;SDS011;64492;51.270;3.912;2022-11-03T00:54:39;3.30;;;1.30;;
75843;SDS011;64492;51.270;3.912;2022-11-03T00:57:05;2.83;;;1.30;;
75843;SDS011;64492;51.270;3.912;2022-11-03T00:59:32;4.53;;;1.90;;
75843;SDS011;64492;51.270;3.912;2022-11-03T01:01:58;2.78;;;1.50;;
75843;SDS011;64492;51.270;3.912;2022-11-03T01:04:25;4.65;;;1.60;;
75843;SDS011;64492;51.270;3.912;2022-11-03T01:07:10;3.97;;;1.35;;
75843;SDS011;64492;51.270;3.912;2022-11-03T01:09:37;4.22;;;1.25;;
75843;SDS011;64492;51.270;3.912;2022-11-03T01:12:05;3.40;;;1.20;;
75843;SDS011;64492;51.270;3.912;2022-11-03T01:14:34;2.88;;;1.23;;
75843;SDS011;64492;51.270;3.912;2022-11-03T01:17:03;3.10;;;1.42;;
75843;SDS011;64492;51.270;3.912;2022-11-03T01:19:30;6.18;;;1.90;;
75843;SDS011;64492;51.270;3.912;2022-11-03T01:21:56;2.90;;;1.48;;
75843;SDS011;64492;51.270;3.912;2022-11-03T01:24:24;5.72;;;1.55;;
75843;SDS011;64492;51.270;3.912;2022-11-03T01:26:51;3.25;;;1.10;;
75843;SDS011;64492;51.270;3.912;2022-11-03T01:29:17;3.67;;;1.42;;
75843;SDS011;64492;51.270;3.912;2022-11-03T01:31:44;4.03;;;1.30;;
75843;SDS011;64492;51.270;3.912;2022-11-03T01:34:11;3.00;;;1.30;;
75843;SDS011;64492;51.270;3.912;2022-11-03T01:36:39;2.83;;;1.20;;
75843;SDS011;64492;51.270;3.912;2022-11-03T01:39:05;3.67;;;1.30;;
75843;SDS011;64492;51.270;3.912;2022-11-03T01:41:33;5.07;;;1.60;;
75843;SDS011;64492;51.270;3.912;2022-11-03T01:46:50;2.40;;;1.08;;
75843;SDS011;64492;51.270;3.912;2022-11-03T01:49:19;4.68;;;1.27;;
75843;SDS011;64492;51.270;3.912;2022-11-03T01:51:49;3.70;;;1.42;;
75843;SDS011;64492;51.270;3.912;2022-11-03T01:54:18;2.88;;;1.33;;
75843;SDS011;64492;51.270;3.912;2022-11-03T01:56:47;3.58;;;1.15;;
75843;SDS011;64492;51.270;3.912;2022-11-03T01:59:15;3.13;;;1.30;;
75843;SDS011;64492;51.270;3.912;2022-11-03T02:04:11;3.10;;;1.38;;
75843;SDS011;64492;51.270;3.912;2022-11-03T02:06:39;5.60;;;1.60;;
75843;SDS011;64492;51.270;3.912;2022-11-03T02:09:07;4.28;;;1.48;;
75843;SDS011;64492;51.270;3.912;2022-11-03T02:11:34;3.00;;;1.42;;
75843;SDS011;64492;51.270;3.912;2022-11-03T02:14:20;2.78;;;1.13;;
75843;SDS011;64492;51.270;3.912;2022-11-03T02:16:48;3.15;;;1.50;;
75843;SDS011;64492;51.270;3.912;2022-11-03T02:19:18;3.72;;;1.65;;
75843;SDS011;64492;51.270;3.912;2022-11-03T02:21:47;2.67;;;1.20;;
75843;SDS011;64492;51.270;3.912;2022-11-03T02:24:22;2.60;;;1.33;;
75843;SDS011;64492;51.270;3.912;2022-11-03T02:26:51;2.95;;;1.35;;
75843;SDS011;64492;51.270;3.912;2022-11-03T02:29:19;3.08;;;1.45;;
75843;SDS011;64492;51.270;3.912;2022-11-03T02:31:46;2.92;;;1.15;;
75843;SDS011;64492;51.270;3.912;2022-11-03T02:34:17;4.00;;;1.10;;
75843;SDS011;64492;51.270;3.912;2022-11-03T02:36:47;3.13;;;1.20;;
75843;SDS011;64492;51.270;3.912;2022-11-03T02:39:16;2.60;;;1.10;;
75843;SDS011;64492;51.270;3.912;2022-11-03T02:41:45;4.07;;;1.33;;
75843;SDS011;64492;51.270;3.912;2022-11-03T02:44:14;2.13;;;1.15;;
75843;SDS011;64492;51.270;3.912;2022-11-03T02:46:43;2.88;;;1.50;;
75843;SDS011;64492;51.270;3.912;2022-11-03T02:49:11;3.30;;;1.58;;
75843;SDS011;64492;51.270;3.912;2022-11-03T02:51:37;2.78;;;1.48;;
75843;SDS011;64492;51.270;3.912;2022-11-03T02:54:07;3.80;;;1.38;;
75843;SDS011;64492;51.270;3.912;2022-11-03T02:56:37;2.50;;;1.00;;
75843;SDS011;64492;51.270;3.912;2022-11-03T02:59:08;2.30;;;1.20;;
75843;SDS011;64492;51.270;3.912;2022-11-03T03:01:38;3.20;;;1.17;;
75843;SDS011;64492;51.270;3.912;2022-11-03T03:04:12;2.92;;;1.45;;
75843;SDS011;64492;51.270;3.912;2022-11-03T03:06:42;2.70;;;1.05;;
75843;SDS011;64492;51.270;3.912;2022-11-03T03:09:11;3.55;;;1.23;;
75843;SDS011;64492;51.270;3.912;2022-11-03T03:11:41;4.38;;;1.30;;
75843;SDS011;64492;51.270;3.912;2022-11-03T03:14:09;3.28;;;1.08;;
75843;SDS011;64492;51.270;3.912;2022-11-03T03:16:49;3.10;;;1.40;;
75843;SDS011;64492;51.270;3.912;2022-11-03T03:19:21;3.97;;;1.30;;
75843;SDS011;64492;51.270;3.912;2022-11-03T03:21:50;3.70;;;1.33;;
75843;SDS011;64492;51.270;3.912;2022-11-03T03:24:20;3.63;;;1.42;;
75843;SDS011;64492;51.270;3.912;2022-11-03T03:26:50;2.97;;;1.30;;
75843;SDS011;64492;51.270;3.912;2022-11-03T03:29:19;3.42;;;1.45;;
75843;SDS011;64492;51.270;3.912;2022-11-03T03:31:50;3.72;;;0.95;;
75843;SDS011;64492;51.270;3.912;2022-11-03T03:34:19;2.95;;;1.13;;
75843;SDS011;64492;51.270;3.912;2022-11-03T03:36:47;3.05;;;1.27;;
75843;SDS011;64492;51.270;3.912;2022-11-03T03:39:14;2.75;;;1.40;;
75843;SDS011;64492;51.270;3.912;2022-11-03T03:41:43;4.15;;;1.52;;
75843;SDS011;64492;51.270;3.912;2022-11-03T03:44:11;3.00;;;1.05;;
75843;SDS011;64492;51.270;3.912;2022-11-03T03:46:39;2.38;;;1.13;;
75843;SDS011;64492;51.270;3.912;2022-11-03T03:49:08;3.35;;;1.50;;
75843;SDS011;64492;51.270;3.912;2022-11-03T03:51:35;4.70;;;1.20;;
75843;SDS011;64492;51.270;3.912;2022-11-03T03:54:02;2.15;;;1.20;;
75843;SDS011;64492;51.270;3.912;2022-11-03T03:56:30;2.40;;;1.30;;
75843;SDS011;64492;51.270;3.912;2022-11-03T03:58:59;2.58;;;0.90;;
75843;SDS011;64492;51.270;3.912;2022-11-03T04:01:25;3.75;;;1.65;;
75843;SDS011;64492;51.270;3.912;2022-11-03T04:03:52;2.97;;;1.50;;
75843;SDS011;64492;51.270;3.912;2022-11-03T04:06:20;1.85;;;1.08;;
75843;SDS011;64492;51.270;3.912;2022-11-03T04:08:46;2.72;;;1.33;;
75843;SDS011;64492;51.270;3.912;2022-11-03T04:11:12;3.90;;;1.45;;
75843;SDS011;64492;51.270;3.912;2022-11-03T04:13:57;3.22;;;1.30;;
75843;SDS011;64492;51.270;3.912;2022-11-03T04:16:41;2.63;;;1.38;;
75843;SDS011;64492;51.270;3.912;2022-11-03T04:19:25;2.30;;;1.30;;
75843;SDS011;64492;51.270;3.912;2022-11-03T04:22:11;1.95;;;1.02;;
75843;SDS011;64492;51.270;3.912;2022-11-03T04:24:44;2.78;;;1.40;;
75843;SDS011;64492;51.270;3.912;2022-11-03T04:27:15;2.58;;;1.30;;
75843;SDS011;64492;51.270;3.912;2022-11-03T04:29:53;3.45;;;1.13;;
75843;SDS011;64492;51.270;3.912;2022-11-03T04:32:22;3.15;;;1.40;;
75843;SDS011;64492;51.270;3.912;2022-11-03T04:34:48;3.42;;;1.13;;
75843;SDS011;64492;51.270;3.912;2022-11-03T04:37:16;3.88;;;1.20;;
75843;SDS011;64492;51.270;3.912;2022-11-03T04:39:43;2.90;;;1.00;;
75843;SDS011;64492;51.270;3.912;2022-11-03T04:42:11;2.38;;;0.95;;
75843;SDS011;64492;51.270;3.912;2022-11-03T04:44:41;3.13;;;1.10;;
75843;SDS011;64492;51.270;3.912;2022-11-03T04:47:08;2.85;;;1.40;;
75843;SDS011;64492;51.270;3.912;2022-11-03T04:49:36;3.72;;;1.40;;
75843;SDS011;64492;51.270;3.912;2022-11-03T04:52:04;7.93;;;2.15;;
75843;SDS011;64492;51.270;3.912;2022-11-03T04:54:32;5.35;;;2.00;;
75843;SDS011;64492;51.270;3.912;2022-11-03T04:56:59;3.75;;;1.48;;
75843;SDS011;64492;51.270;3.912;2022-11-03T04:59:30;3.17;;;1.40;;
75843;SDS011;64492;51.270;3.912;2022-11-03T05:01:56;5.63;;;1.63;;
75843;SDS011;64492;51.270;3.912;2022-11-03T05:04:23;3.97;;;1.55;;
75843;SDS011;64492;51.270;3.912;2022-11-03T05:06:51;3.25;;;1.80;;
75843;SDS011;64492;51.270;3.912;2022-11-03T05:09:18;7.72;;;2.83;;
75843;SDS011;64492;51.270;3.912;2022-11-03T05:11:47;6.63;;;2.13;;
75843;SDS011;64492;51.270;3.912;2022-11-03T05:14:14;6.85;;;1.92;;
75843;SDS011;64492;51.270;3.912;2022-11-03T05:16:43;4.80;;;2.10;;
75843;SDS011;64492;51.270;3.912;2022-11-03T05:19:11;5.45;;;1.88;;
75843;SDS011;64492;51.270;3.912;2022-11-03T05:21:41;4.10;;;1.80;;
75843;SDS011;64492;51.270;3.912;2022-11-03T05:24:09;4.60;;;1.60;;
75843;SDS011;64492;51.270;3.912;2022-11-03T05:26:37;4.93;;;1.83;;
75843;SDS011;64492;51.270;3.912;2022-11-03T05:29:08;4.63;;;1.60;;
75843;SDS011;64492;51.270;3.912;2022-11-03T05:31:36;5.57;;;1.75;;
75843;SDS011;64492;51.270;3.912;2022-11-03T05:34:20;3.83;;;1.60;;
75843;SDS011;64492;51.270;3.912;2022-11-03T05:36:53;3.70;;;1.80;;
75843;SDS011;64492;51.270;3.912;2022-11-03T05:39:25;4.47;;;1.75;;
75843;SDS011;64492;51.270;3.912;2022-11-03T05:41:55;5.53;;;1.77;;
75843;SDS011;64492;51.270;3.912;2022-11-03T05:44:26;3.78;;;1.50;;
75843;SDS011;64492;51.270;3.912;2022-11-03T05:46:55;4.60;;;1.42;;
75843;SDS011;64492;51.270;3.912;2022-11-03T05:49:22;5.38;;;1.70;;
75843;SDS011;64492;51.270;3.912;2022-11-03T05:51:48;4.40;;;1.65;;
75843;SDS011;64492;51.270;3.912;2022-11-03T05:54:17;4.53;;;1.42;;
75843;SDS011;64492;51.270;3.912;2022-11-03T05:56:45;3.53;;;1.70;;
75843;SDS011;64492;51.270;3.912;2022-11-03T05:59:12;3.00;;;1.50;;
75843;SDS011;64492;51.270;3.912;2022-11-03T06:01:40;4.13;;;1.25;;
75843;SDS011;64492;51.270;3.912;2022-11-03T06:04:12;5.70;;;2.20;;
75843;SDS011;64492;51.270;3.912;2022-11-03T06:06:42;4.93;;;1.67;;
75843;SDS011;64492;51.270;3.912;2022-11-03T06:09:13;3.97;;;1.58;;
75843;SDS011;64492;51.270;3.912;2022-11-03T06:11:42;4.18;;;1.60;;
75843;SDS011;64492;51.270;3.912;2022-11-03T06:14:11;3.90;;;1.63;;
75843;SDS011;64492;51.270;3.912;2022-11-03T06:16:41;3.80;;;1.60;;
75843;SDS011;64492;51.270;3.912;2022-11-03T06:19:20;4.15;;;1.60;;
75843;SDS011;64492;51.270;3.912;2022-11-03T06:21:49;3.55;;;1.70;;
75843;SDS011;64492;51.270;3.912;2022-11-03T06:24:17;6.00;;;1.85;;
75843;SDS011;64492;51.270;3.912;2022-11-03T06:26:46;6.07;;;2.03;;
75843;SDS011;64492;51.270;3.912;2022-11-03T06:29:13;6.35;;;2.58;;
75843;SDS011;64492;51.270;3.912;2022-11-03T06:31:41;8.88;;;3.35;;
75843;SDS011;64492;51.270;3.912;2022-11-03T06:34:16;6.68;;;3.13;;
75843;SDS011;64492;51.270;3.912;2022-11-03T06:36:47;5.88;;;2.20;;
75843;SDS011;64492;51.270;3.912;2022-11-03T06:39:15;5.20;;;2.50;;
75843;SDS011;64492;51.270;3.912;2022-11-03T06:41:44;5.05;;;2.45;;
75843;SDS011;64492;51.270;3.912;2022-11-03T06:44:16;7.60;;;2.83;;
75843;SDS011;64492;51.270;3.912;2022-11-03T06:46:46;6.10;;;2.38;;
75843;SDS011;64492;51.270;3.912;2022-11-03T06:49:22;6.35;;;2.33;;
75843;SDS011;64492;51.270;3.912;2022-11-03T06:51:50;6.82;;;2.10;;
75843;SDS011;64492;51.270;3.912;2022-11-03T06:54:17;8.90;;;2.90;;
75843;SDS011;64492;51.270;3.912;2022-11-03T06:56:43;6.40;;;2.50;;
75843;SDS011;64492;51.270;3.912;2022-11-03T06:59:10;7.38;;;2.22;;
75843;SDS011;64492;51.270;3.912;2022-11-03T07:01:39;4.47;;;2.13;;
75843;SDS011;64492;51.270;3.912;2022-11-03T07:04:11;8.30;;;2.25;;
75843;SDS011;64492;51.270;3.912;2022-11-03T07:06:39;6.43;;;2.30;;
75843;SDS011;64492;51.270;3.912;2022-11-03T07:09:06;6.00;;;2.10;;
75843;SDS011;64492;51.270;3.912;2022-11-03T07:11:40;5.57;;;2.05;;
75843;SDS011;64492;51.270;3.912;2022-11-03T07:14:09;4.57;;;2.10;;
75843;SDS011;64492;51.270;3.912;2022-11-03T07:16:38;4.55;;;2.22;;
75843;SDS011;64492;51.270;3.912;2022-11-03T07:19:11;5.60;;;2.45;;
75843;SDS011;64492;51.270;3.912;2022-11-03T07:21:40;4.80;;;1.80;;
75843;SDS011;64492;51.270;3.912;2022-11-03T07:24:14;6.72;;;2.03;;
75843;SDS011;64492;51.270;3.912;2022-11-03T07:26:41;5.82;;;2.05;;
75843;SDS011;64492;51.270;3.912;2022-11-03T07:29:09;5.20;;;2.13;;
75843;SDS011;64492;51.270;3.912;2022-11-03T07:31:38;4.95;;;1.73;;
75843;SDS011;64492;51.270;3.912;2022-11-03T07:34:05;4.65;;;2.05;;
75843;SDS011;64492;51.270;3.912;2022-11-03T07:36:38;7.40;;;2.22;;
75843;SDS011;64492;51.270;3.912;2022-11-03T07:39:04;4.07;;;1.65;;
75843;SDS011;64492;51.270;3.912;2022-11-03T07:41:33;5.00;;;1.88;;
75843;SDS011;64492;51.270;3.912;2022-11-03T07:44:00;4.80;;;1.58;;
75843;SDS011;64492;51.270;3.912;2022-11-03T07:46:27;3.60;;;1.75;;
75843;SDS011;64492;51.270;3.912;2022-11-03T07:48:54;4.45;;;1.70;;
75843;SDS011;64492;51.270;3.912;2022-11-03T07:51:24;4.97;;;2.05;;
75843;SDS011;64492;51.270;3.912;2022-11-03T07:53:53;4.97;;;2.10;;
75843;SDS011;64492;51.270;3.912;2022-11-03T07:56:21;4.47;;;1.83;;
75843;SDS011;64492;51.270;3.912;2022-11-03T07:58:49;8.35;;;2.35;;
75843;SDS011;64492;51.270;3.912;2022-11-03T08:01:26;4.57;;;2.00;;
75843;SDS011;64492;51.270;3.912;2022-11-03T08:03:55;5.45;;;1.90;;
75843;SDS011;64492;51.270;3.912;2022-11-03T08:06:25;5.70;;;1.63;;
75843;SDS011;64492;51.270;3.912;2022-11-03T08:08:52;4.93;;;1.92;;
75843;SDS011;64492;51.270;3.912;2022-11-03T08:11:18;4.95;;;1.90;;
75843;SDS011;64492;51.270;3.912;2022-11-03T08:16:13;4.25;;;1.85;;
75843;SDS011;64492;51.270;3.912;2022-11-03T08:18:39;4.38;;;1.60;;
75843;SDS011;64492;51.270;3.912;2022-11-03T08:21:06;4.88;;;1.52;;
75843;SDS011;64492;51.270;3.912;2022-11-03T08:23:34;3.85;;;1.75;;
75843;SDS011;64492;51.270;3.912;2022-11-03T08:26:01;5.40;;;1.60;;
75843;SDS011;64492;51.270;3.912;2022-11-03T08:28:27;5.05;;;1.58;;
75843;SDS011;64492;51.270;3.912;2022-11-03T08:30:54;3.38;;;1.38;;
75843;SDS011;64492;51.270;3.912;2022-11-03T08:33:25;6.72;;;2.10;;
75843;SDS011;64492;51.270;3.912;2022-11-03T08:35:52;7.07;;;2.10;;
75843;SDS011;64492;51.270;3.912;2022-11-03T08:38:18;5.10;;;1.90;;
75843;SDS011;64492;51.270;3.912;2022-11-03T08:40:46;4.50;;;2.10;;
75843;SDS011;64492;51.270;3.912;2022-11-03T08:43:12;3.55;;;1.58;;
75843;SDS011;64492;51.270;3.912;2022-11-03T08:45:39;5.10;;;1.80;;
75843;SDS011;64492;51.270;3.912;2022-11-03T08:48:05;4.30;;;1.63;;
75843;SDS011;64492;51.270;3.912;2022-11-03T08:50:32;5.10;;;1.98;;
75843;SDS011;64492;51.270;3.912;2022-11-03T08:52:58;5.20;;;1.77;;
75843;SDS011;64492;51.270;3.912;2022-11-03T08:55:25;3.35;;;1.50;;
75843;SDS011;64492;51.270;3.912;2022-11-03T08:57:53;4.07;;;1.75;;
75843;SDS011;64492;51.270;3.912;2022-11-03T09:00:19;5.13;;;1.75;;
75843;SDS011;64492;51.270;3.912;2022-11-03T09:02:46;3.65;;;1.42;;
75843;SDS011;64492;51.270;3.912;2022-11-03T09:05:13;5.07;;;1.67;;
75843;SDS011;64492;51.270;3.912;2022-11-03T09:07:39;3.55;;;1.60;;
75843;SDS011;64492;51.270;3.912;2022-11-03T09:10:07;3.78;;;1.60;;
75843;SDS011;64492;51.270;3.912;2022-11-03T09:12:34;4.35;;;1.77;;
75843;SDS011;64492;51.270;3.912;2022-11-03T09:15:03;4.60;;;1.70;;
75843;SDS011;64492;51.270;3.912;2022-11-03T09:17:30;4.72;;;2.00;;
75843;SDS011;64492;51.270;3.912;2022-11-03T09:19:57;3.15;;;1.42;;
75843;SDS011;64492;51.270;3.912;2022-11-03T09:22:24;4.55;;;1.40;;
75843;SDS011;64492;51.270;3.912;2022-11-03T09:24:50;4.90;;;1.60;;
75843;SDS011;64492;51.270;3.912;2022-11-03T09:27:17;5.18;;;1.58;;
75843;SDS011;64492;51.270;3.912;2022-11-03T09:29:43;4.10;;;1.73;;
75843;SDS011;64492;51.270;3.912;2022-11-03T09:32:11;6.43;;;1.80;;
75843;SDS011;64492;51.270;3.912;2022-11-03T09:34:38;5.22;;;2.00;;
75843;SDS011;64492;51.270;3.912;2022-11-03T09:37:04;4.38;;;2.08;;
75843;SDS011;64492;51.270;3.912;2022-11-03T09:39:31;4.28;;;1.63;;
75843;SDS011;64492;51.270;3.912;2022-11-03T09:41:58;4.65;;;1.70;;
75843;SDS011;64492;51.270;3.912;2022-11-03T09:44:27;3.15;;;1.48;;
75843;SDS011;64492;51.270;3.912;2022-11-03T09:46:54;3.13;;;1.40;;
75843;SDS011;64492;51.270;3.912;2022-11-03T09:49:22;3.95;;;1.50;;
75843;SDS011;64492;51.270;3.912;2022-11-03T09:51:48;4.50;;;1.70;;
75843;SDS011;64492;51.270;3.912;2022-11-03T09:54:15;4.65;;;1.55;;
75843;SDS011;64492;51.270;3.912;2022-11-03T09:56:42;3.58;;;1.60;;
75843;SDS011;64492;51.270;3.912;2022-11-03T09:59:14;3.90;;;1.50;;
75843;SDS011;64492;51.270;3.912;2022-11-03T10:01:42;3.50;;;1.45;;
75843;SDS011;64492;51.270;3.912;2022-11-03T10:04:10;3.90;;;1.67;;
75843;SDS011;64492;51.270;3.912;2022-11-03T10:06:39;4.30;;;1.48;;
75843;SDS011;64492;51.270;3.912;2022-11-03T10:09:05;4.82;;;1.55;;
75843;SDS011;64492;51.270;3.912;2022-11-03T10:11:36;4.15;;;1.48;;
75843;SDS011;64492;51.270;3.912;2022-11-03T10:14:02;2.72;;;1.60;;
75843;SDS011;64492;51.270;3.912;2022-11-03T10:18:57;4.03;;;1.42;;
75843;SDS011;64492;51.270;3.912;2022-11-03T10:21:25;3.63;;;1.40;;
75843;SDS011;64492;51.270;3.912;2022-11-03T10:23:54;4.55;;;1.55;;
75843;SDS011;64492;51.270;3.912;2022-11-03T10:26:20;3.67;;;1.40;;
75843;SDS011;64492;51.270;3.912;2022-11-03T10:28:57;3.25;;;1.23;;
75843;SDS011;64492;51.270;3.912;2022-11-03T10:31:30;3.47;;;1.83;;
75843;SDS011;64492;51.270;3.912;2022-11-03T10:33:57;3.72;;;1.48;;
75843;SDS011;64492;51.270;3.912;2022-11-03T10:36:24;3.13;;;1.58;;
75843;SDS011;64492;51.270;3.912;2022-11-03T10:38:51;2.88;;;1.50;;
75843;SDS011;64492;51.270;3.912;2022-11-03T10:41:20;4.57;;;1.42;;
75843;SDS011;64492;51.270;3.912;2022-11-03T10:44:00;3.72;;;1.65;;
75843;SDS011;64492;51.270;3.912;2022-11-03T10:46:28;5.13;;;1.35;;
75843;SDS011;64492;51.270;3.912;2022-11-03T10:49:02;4.45;;;1.70;;
75843;SDS011;64492;51.270;3.912;2022-11-03T10:51:30;4.47;;;1.67;;
75843;SDS011;64492;51.270;3.912;2022-11-03T10:53:57;3.58;;;1.30;;
75843;SDS011;64492;51.270;3.912;2022-11-03T10:56:25;2.72;;;1.15;;
75843;SDS011;64492;51.270;3.912;2022-11-03T10:58:52;3.35;;;1.48;;
75843;SDS011;64492;51.270;3.912;2022-11-03T11:01:19;4.18;;;1.75;;
75843;SDS011;64492;51.270;3.912;2022-11-03T11:03:45;4.35;;;1.58;;
75843;SDS011;64492;51.270;3.912;2022-11-03T11:06:18;4.10;;;1.30;;
75843;SDS011;64492;51.270;3.912;2022-11-03T11:08:46;3.28;;;1.70;;
75843;SDS011;64492;51.270;3.912;2022-11-03T11:11:13;4.22;;;1.50;;
75843;SDS011;64492;51.270;3.912;2022-11-03T11:13:42;3.10;;;1.35;;
75843;SDS011;64492;51.270;3.912;2022-11-03T11:19:04;3.90;;;1.63;;
75843;SDS011;64492;51.270;3.912;2022-11-03T11:33:13;4.88;;;1.35;;
75843;SDS011;64492;51.270;3.912;2022-11-03T11:44:53;2.40;;;1.20;;
75843;SDS011;64492;51.270;3.912;2022-11-03T11:47:28;4.30;;;1.50;;
75843;SDS011;64492;51.270;3.912;2022-11-03T11:52:58;3.50;;;1.38;;
75843;SDS011;64492;51.270;3.912;2022-11-03T11:55:29;2.83;;;1.38;;
75843;SDS011;64492;51.270;3.912;2022-11-03T11:57:58;2.67;;;1.13;;
75843;SDS011;64492;51.270;3.912;2022-11-03T12:02:52;3.40;;;1.30;;
75843;SDS011;64492;51.270;3.912;2022-11-03T12:05:20;2.70;;;1.20;;
75843;SDS011;64492;51.270;3.912;2022-11-03T12:07:48;4.20;;;1.70;;
75843;SDS011;64492;51.270;3.912;2022-11-03T12:10:15;2.97;;;1.30;;
75843;SDS011;64492;51.270;3.912;2022-11-03T12:12:43;4.38;;;1.58;;
75843;SDS011;64492;51.270;3.912;2022-11-03T12:23:40;2.45;;;1.00;;
75843;SDS011;64492;51.270;3.912;2022-11-03T12:26:13;3.35;;;1.30;;
75843;SDS011;64492;51.270;3.912;2022-11-03T12:28:40;3.13;;;1.38;;
75843;SDS011;64492;51.270;3.912;2022-11-03T12:31:07;3.33;;;1.48;;
75843;SDS011;64492;51.270;3.912;2022-11-03T12:33:33;5.80;;;1.48;;
75843;SDS011;64492;51.270;3.912;2022-11-03T12:36:00;2.22;;;1.20;;
75843;SDS011;64492;51.270;3.912;2022-11-03T12:38:26;1.90;;;1.08;;
75843;SDS011;64492;51.270;3.912;2022-11-03T12:40:54;2.13;;;1.15;;
75843;SDS011;64492;51.270;3.912;2022-11-03T12:43:21;2.58;;;1.20;;
75843;SDS011;64492;51.270;3.912;2022-11-03T12:45:47;3.35;;;1.25;;
75843;SDS011;64492;51.270;3.912;2022-11-03T12:48:14;3.50;;;1.35;;
75843;SDS011;64492;51.270;3.912;2022-11-03T12:50:40;4.05;;;1.67;;
75843;SDS011;64492;51.270;3.912;2022-11-03T12:53:07;3.00;;;1.20;;
75843;SDS011;64492;51.270;3.912;2022-11-03T12:55:33;2.95;;;1.15;;
75843;SDS011;64492;51.270;3.912;2022-11-03T12:58:01;2.53;;;1.23;;
75843;SDS011;64492;51.270;3.912;2022-11-03T13:00:28;2.15;;;1.10;;
75843;SDS011;64492;51.270;3.912;2022-11-03T13:02:54;2.55;;;1.23;;
75843;SDS011;64492;51.270;3.912;2022-11-03T13:05:21;4.15;;;1.50;;
75843;SDS011;64492;51.270;3.912;2022-11-03T13:07:49;2.80;;;1.17;;
75843;SDS011;64492;51.270;3.912;2022-11-03T13:10:15;4.05;;;1.15;;
75843;SDS011;64492;51.270;3.912;2022-11-03T13:12:42;3.00;;;1.40;;
75843;SDS011;64492;51.270;3.912;2022-11-03T13:15:10;3.40;;;1.05;;
75843;SDS011;64492;51.270;3.912;2022-11-03T13:17:40;2.28;;;1.20;;
75843;SDS011;64492;51.270;3.912;2022-11-03T13:20:07;2.70;;;1.20;;
75843;SDS011;64492;51.270;3.912;2022-11-03T13:22:34;2.35;;;1.10;;
75843;SDS011;64492;51.270;3.912;2022-11-03T13:25:02;2.53;;;1.10;;
75843;SDS011;64492;51.270;3.912;2022-11-03T13:27:29;2.35;;;1.13;;
75843;SDS011;64492;51.270;3.912;2022-11-03T13:29:56;2.47;;;1.30;;
75843;SDS011;64492;51.270;3.912;2022-11-03T13:32:24;2.38;;;1.20;;
75843;SDS011;64492;51.270;3.912;2022-11-03T13:34:50;2.30;;;1.17;;
75843;SDS011;64492;51.270;3.912;2022-11-03T13:37:17;2.55;;;1.10;;
75843;SDS011;64492;51.270;3.912;2022-11-03T13:39:43;2.92;;;1.15;;
75843;SDS011;64492;51.270;3.912;2022-11-03T13:42:10;2.28;;;1.20;;
75843;SDS011;64492;51.270;3.912;2022-11-03T13:44:36;2.75;;;1.15;;
75843;SDS011;64492;51.270;3.912;2022-11-03T13:47:03;2.90;;;1.10;;
75843;SDS011;64492;51.270;3.912;2022-11-03T13:49:31;2.80;;;1.13;;
75843;SDS011;64492;51.270;3.912;2022-11-03T13:51:57;3.58;;;1.63;;
75843;SDS011;64492;51.270;3.912;2022-11-03T13:54:24;2.53;;;1.20;;
75843;SDS011;64492;51.270;3.912;2022-11-03T13:56:50;2.28;;;1.00;;
75843;SDS011;64492;51.270;3.912;2022-11-03T13:59:17;3.30;;;1.40;;
75843;SDS011;64492;51.270;3.912;2022-11-03T14:01:43;1.80;;;1.10;;
75843;SDS011;64492;51.270;3.912;2022-11-03T14:04:10;2.03;;;1.20;;
75843;SDS011;64492;51.270;3.912;2022-11-03T14:06:38;1.92;;;1.20;;
75843;SDS011;64492;51.270;3.912;2022-11-03T14:09:05;2.58;;;1.02;;
75843;SDS011;64492;51.270;3.912;2022-11-03T14:11:31;2.13;;;1.08;;
75843;SDS011;64492;51.270;3.912;2022-11-03T14:14:15;1.95;;;1.10;;
75843;SDS011;64492;51.270;3.912;2022-11-03T14:16:41;1.90;;;1.00;;
75843;SDS011;64492;51.270;3.912;2022-11-03T14:19:08;2.72;;;1.20;;
75843;SDS011;64492;51.270;3.912;2022-11-03T14:21:34;2.55;;;1.10;;
75843;SDS011;64492;51.270;3.912;2022-11-03T14:24:04;2.88;;;1.13;;
75843;SDS011;64492;51.270;3.912;2022-11-03T14:26:31;2.30;;;1.00;;
75843;SDS011;64492;51.270;3.912;2022-11-03T14:28:57;2.85;;;1.25;;
75843;SDS011;64492;51.270;3.912;2022-11-03T14:31:23;2.08;;;1.20;;
75843;SDS011;64492;51.270;3.912;2022-11-03T14:33:50;3.05;;;1.30;;
75843;SDS011;64492;51.270;3.912;2022-11-03T14:36:17;2.50;;;1.10;;
75843;SDS011;64492;51.270;3.912;2022-11-03T14:38:43;2.88;;;1.30;;
75843;SDS011;64492;51.270;3.912;2022-11-03T14:41:11;2.00;;;1.08;;
75843;SDS011;64492;51.270;3.912;2022-11-03T14:43:55;3.10;;;1.23;;
75843;SDS011;64492;51.270;3.912;2022-11-03T14:46:21;3.00;;;1.23;;
75843;SDS011;64492;51.270;3.912;2022-11-03T14:48:48;2.60;;;1.35;;
75843;SDS011;64492;51.270;3.912;2022-11-03T14:51:14;3.10;;;1.45;;
75843;SDS011;64492;51.270;3.912;2022-11-03T14:53:41;2.83;;;1.10;;
75843;SDS011;64492;51.270;3.912;2022-11-03T14:56:07;3.78;;;1.50;;
75843;SDS011;64492;51.270;3.912;2022-11-03T14:58:35;2.08;;;1.05;;
75843;SDS011;64492;51.270;3.912;2022-11-03T15:01:02;2.92;;;1.45;;
75843;SDS011;64492;51.270;3.912;2022-11-03T15:03:28;3.00;;;1.20;;
75843;SDS011;64492;51.270;3.912;2022-11-03T15:05:55;1.90;;;1.08;;
75843;SDS011;64492;51.270;3.912;2022-11-03T15:08:21;2.63;;;1.10;;
75843;SDS011;64492;51.270;3.912;2022-11-03T15:10:50;2.20;;;1.08;;
75843;SDS011;64492;51.270;3.912;2022-11-03T15:13:16;4.50;;;1.17;;
75843;SDS011;64492;51.270;3.912;2022-11-03T15:15:44;2.88;;;1.65;;
75843;SDS011;64492;51.270;3.912;2022-11-03T15:18:10;2.78;;;1.38;;
75843;SDS011;64492;51.270;3.912;2022-11-03T15:20:37;2.53;;;1.20;;
75843;SDS011;64492;51.270;3.912;2022-11-03T15:23:04;2.47;;;1.20;;
75843;SDS011;64492;51.270;3.912;2022-11-03T15:25:31;1.83;;;1.20;;
75843;SDS011;64492;51.270;3.912;2022-11-03T15:27:58;2.85;;;1.27;;
75843;SDS011;64492;51.270;3.912;2022-11-03T15:30:25;1.88;;;1.02;;
75843;SDS011;64492;51.270;3.912;2022-11-03T15:32:53;3.25;;;1.30;;
75843;SDS011;64492;51.270;3.912;2022-11-03T15:35:20;1.98;;;1.02;;
75843;SDS011;64492;51.270;3.912;2022-11-03T15:37:47;2.17;;;1.10;;
75843;SDS011;64492;51.270;3.912;2022-11-03T15:40:14;2.75;;;1.05;;
75843;SDS011;64492;51.270;3.912;2022-11-03T15:42:41;4.47;;;1.38;;